Flight Track Log - Related Links

Times and Time Zones

All times are in EDT time to prevent confusion due to time zone crossing. See the N716SN flight status page for this flight to view local times or setup timezone preferences in your user account.

Time Position Orientation Groundspeed Altitude Reporting Facility
EDT Latitude Longitude Course Direction KTS MPH feet Rate Location/Type
Thu 12:55:56 PM 41.5125 -81.6978 272° West 148 170 1,000  Level Cleveland Center
Thu 12:56:44 PM 41.5142 -81.7617 272° West 243 280 2,100 783 Climbing Cleveland Center
Thu 12:57:51 PM 41.5725 -81.7544 North 232 267 2,500 403 Climbing Cleveland Center
Thu 12:58:58 PM 41.5817 -81.6575 83° East 250 288 3,000 744 Climbing Cleveland Center
Thu 12:59:52 PM 41.5575 -81.5850 114° Southeast 254 292 4,000 1,000 Climbing Cleveland Center
Thu 01:00:22 PM 41.5325 -81.5789 170° South 260 299 4,400 1,770 Climbing Cleveland Center
Thu 01:00:53 PM 41.4867 -81.5811 182° South 268 308 5,800 2,000 Climbing Cleveland Center
Thu 01:01:22 PM 41.4575 -81.5806 179° South 266 306 6,400 1,618 Climbing Cleveland Center
Thu 01:02:22 PM 41.3903 -81.6156 201° Southwest 272 313 8,200 1,800 Climbing Cleveland Center
Thu 01:03:22 PM 41.3314 -81.6781 219° Southwest 272 313 10,000 1,800 Climbing Cleveland Center
Thu 01:04:22 PM 41.2642 -81.7294 210° Southwest 279 321 11,800 2,050 Climbing Cleveland Center
Thu 01:05:22 PM 41.2031 -81.7864 215° Southwest 279 321 14,100 1,800 Climbing Cleveland Center
Thu 01:06:22 PM 41.1381 -81.8431 213° Southwest 285 328 15,400 1,100 Climbing Cleveland Center
Thu 01:07:22 PM 41.0664 -81.9050 213° Southwest 301 346 16,300 943 Climbing Cleveland Center
Thu 01:09:01 PM 40.9453 -82.0078 213° Southwest 316 364 17,900 634 Climbing Indianapolis Center
Thu 01:10:03 PM 40.8656 -82.0711 211° Southwest 328 377 18,000 48 Climbing Indianapolis Center
Thu 01:11:05 PM 40.7833 -82.1308 209° Southwest 334 384 18,000  Level Indianapolis Center
Thu 01:12:07 PM 40.6861 -82.2006 209° Southwest 337 388 18,000  Level Indianapolis Center
Thu 01:13:09 PM 40.6125 -82.2800 219° Southwest 339 390 18,000  Level Indianapolis Center
Thu 01:14:11 PM 40.5414 -82.3650 222° Southwest 340 391 18,000  Level Indianapolis Center
Thu 01:15:13 PM 40.4711 -82.4492 222° Southwest 340 391 18,000  Level Indianapolis Center
Thu 01:16:15 PM 40.4003 -82.5303 221° Southwest 336 387 18,000  Level Indianapolis Center
Thu 01:17:17 PM 40.3292 -82.6117 221° Southwest 336 387 18,000  Level Indianapolis Center
Thu 01:18:19 PM 40.2581 -82.6947 222° Southwest 339 390 18,000  Level Indianapolis Center
Thu 01:19:21 PM 40.1750 -82.7908 221° Southwest 336 387 18,000  Level Indianapolis Center
Thu 01:21:25 PM 40.0519 -82.9758 229° Southwest 338 389 18,000  Level Indianapolis Center
Thu 01:22:27 PM 40.0011 -83.0761 237° Southwest 330 380 18,000  Level Indianapolis Center
Thu 01:23:29 PM 39.9483 -83.1775 236° Southwest 334 384 18,000  Level Indianapolis Center
Thu 01:24:31 PM 39.8961 -83.2783 236° Southwest 332 382 18,000 -97 Level Indianapolis Center
Thu 01:25:33 PM 39.8436 -83.3789 236° Southwest 330 380 17,800 -532 Descending Indianapolis Center
Thu 01:26:35 PM 39.7886 -83.4831 236° Southwest 331 381 16,900 -919 Descending Indianapolis Center
Thu 01:27:37 PM 39.7378 -83.5819 236° Southwest 323 372 15,900 -968 Descending Indianapolis Center
Thu 01:28:39 PM 39.6883 -83.6764 236° Southwest 314 361 14,900 -968 Descending Indianapolis Center
Thu 01:29:41 PM 39.6386 -83.7697 235° Southwest 311 358 13,900 -1,065 Descending Indianapolis Center
Thu 01:30:43 PM 39.5833 -83.8753 236° Southwest 302 348 12,700 -1,065 Descending Indianapolis Center
Thu 01:31:45 PM 39.5358 -83.9631 235° Southwest 296 341 11,700 -823 Descending Indianapolis Center
Thu 01:32:47 PM 39.4903 -84.0511 236° Southwest 292 336 11,000 -823 Descending Indianapolis Center
Thu 01:33:49 PM 39.4375 -84.1272 228° Southwest 282 325 10,000 -1,113 Descending Indianapolis Center
Thu 01:34:51 PM 39.3853 -84.1986 227° Southwest 273 314 8,700 -1,548 Descending Indianapolis Center
Thu 01:35:53 PM 39.3331 -84.2683 226° Southwest 269 310 6,800 -1,887 Descending Indianapolis Center
Thu 01:36:55 PM 39.2803 -84.3353 224° Southwest 266 306 4,800 -1,452 Descending Indianapolis Center
Thu 01:37:57 PM 39.2136 -84.3578 195° South 249 287 3,800 -919 Descending Indianapolis Center
Thu 01:38:59 PM 39.1500 -84.3831 197° South 226 260 2,900 -871 Descending Indianapolis Center
Thu 01:41:00 PM 39.1033 -84.4186 226° Southwest  Level Estimated
Thu 01:48:00 PM 39.1000 -84.4167 57° Northeast  Level FlightAware

Login

Don't have an account? Register now (free) for customized features, flight alerts, and more!